SCDA 261700Z 28010KT CAVOK 19/10 Q1016